createdAt,value
2018-06-20T00:00:49.040Z,78.17
2018-06-20T00:01:48.999Z,78.36
2018-06-20T00:02:49.003Z,77.88
2018-06-20T00:03:49.056Z,77.88
2018-06-20T00:04:49.062Z,78.08
2018-06-20T00:05:49.038Z,77.98
2018-06-20T00:06:49.009Z,78.36
2018-06-20T00:07:49.034Z,78.17
2018-06-20T00:08:49.041Z,78.17
2018-06-20T00:09:49.077Z,78.36
2018-06-20T00:10:49.055Z,77.98
2018-06-20T00:11:49.024Z,77.88
2018-06-20T00:12:49.043Z,77.59
2018-06-20T00:13:49.050Z,77.78
2018-06-20T00:14:49.062Z,77.69
2018-06-20T00:15:49.064Z,77.78
2018-06-20T00:16:49.096Z,77.69
2018-06-20T00:17:49.055Z,77.59
2018-06-20T00:18:49.133Z,77.69
2018-06-20T00:19:49.102Z,77.78
2018-06-20T00:20:49.066Z,77.88
2018-06-20T00:21:49.063Z,77.88
2018-06-20T00:22:49.050Z,77.88
2018-06-20T00:23:49.052Z,77.69
2018-06-20T00:24:49.047Z,77.88
2018-06-20T00:25:49.040Z,77.78
2018-06-20T00:26:49.060Z,77.88
2018-06-20T00:27:49.080Z,77.59
2018-06-20T00:28:49.096Z,77.59
2018-06-20T00:29:49.098Z,77.59
2018-06-20T00:30:49.110Z,77.59
2018-06-20T00:31:49.054Z,77.59
2018-06-20T00:32:49.067Z,77.78
2018-06-20T00:33:49.086Z,77.78
2018-06-20T00:34:49.104Z,77.69
2018-06-20T00:35:49.078Z,78.08
2018-06-20T00:36:49.110Z,77.88
2018-06-20T00:37:49.072Z,77.69
2018-06-20T00:38:49.078Z,77.78
2018-06-20T00:39:49.060Z,77.78
2018-06-20T00:40:49.084Z,77.78
2018-06-20T00:41:49.071Z,77.88
2018-06-20T00:42:49.109Z,78.27
2018-06-20T00:43:49.105Z,77.88
2018-06-20T00:44:49.113Z,77.88
2018-06-20T00:45:49.118Z,77.69
2018-06-20T00:46:49.108Z,77.98
2018-06-20T00:47:49.087Z,77.78
2018-06-20T00:48:49.114Z,77.98
2018-06-20T00:49:49.118Z,77.69
2018-06-20T00:50:49.135Z,77.78
2018-06-20T00:51:49.131Z,78.08
2018-06-20T00:52:49.138Z,77.69
2018-06-20T00:53:49.143Z,77.98
2018-06-20T00:54:49.100Z,77.88
2018-06-20T00:55:49.130Z,77.4
2018-06-20T00:56:49.122Z,77.69
2018-06-20T00:57:49.102Z,77.5
2018-06-20T00:58:49.156Z,77.5
2018-06-20T00:59:49.143Z,77.4
2018-06-20T01:00:49.124Z,77.78
2018-06-20T01:01:49.137Z,77.88
2018-06-20T01:02:49.127Z,77.78
2018-06-20T01:03:49.145Z,77.69
2018-06-20T01:04:49.141Z,77.78
2018-06-20T01:05:49.156Z,77.78
2018-06-20T01:06:49.171Z,77.59
2018-06-20T01:07:49.113Z,77.59
2018-06-20T01:08:49.293Z,77.78
2018-06-20T01:09:49.186Z,77.78
2018-06-20T01:10:49.156Z,77.88
2018-06-20T01:11:49.458Z,77.78
2018-06-20T01:12:49.170Z,78.08
2018-06-20T01:13:49.162Z,78.36
2018-06-20T01:14:49.157Z,78.08
2018-06-20T01:15:49.134Z,78.46
2018-06-20T01:16:49.191Z,78.08
2018-06-20T01:17:49.174Z,77.88
2018-06-20T01:18:49.154Z,78.17
2018-06-20T01:19:49.167Z,78.17
2018-06-20T01:20:49.177Z,78.17
2018-06-20T01:21:49.147Z,78.08
2018-06-20T01:22:49.154Z,78.17
2018-06-20T01:23:49.169Z,78.17
2018-06-20T01:24:49.180Z,77.98
2018-06-20T01:25:49.157Z,78.08
2018-06-20T01:26:49.169Z,77.98
2018-06-20T01:27:49.175Z,78.08
2018-06-20T01:28:49.221Z,77.98
2018-06-20T01:29:49.181Z,77.88
2018-06-20T01:30:49.190Z,77.88
2018-06-20T01:31:49.200Z,78.17
2018-06-20T01:32:49.219Z,78.08
2018-06-20T01:33:49.199Z,78.17
2018-06-20T01:34:49.221Z,77.88
2018-06-20T01:35:49.194Z,78.17
2018-06-20T01:36:49.225Z,78.36
2018-06-20T01:37:49.175Z,77.98
2018-06-20T01:38:49.290Z,78.08
2018-06-20T01:39:49.201Z,77.88
2018-06-20T01:40:49.200Z,77.98
2018-06-20T01:41:49.233Z,78.08
2018-06-20T01:42:49.216Z,78.17
2018-06-20T01:43:49.199Z,78.27
2018-06-20T01:44:49.234Z,78.36
2018-06-20T01:45:49.264Z,77.69
2018-06-20T01:46:49.248Z,77.98
2018-06-20T01:47:49.216Z,78.36
2018-06-20T01:48:49.225Z,78.17
2018-06-20T01:49:49.239Z,78.56
2018-06-20T01:50:49.235Z,78.75
2018-06-20T01:51:49.224Z,78.36
2018-06-20T01:52:49.258Z,78.46
2018-06-20T01:53:49.266Z,78.56
2018-06-20T01:54:49.266Z,78.66
2018-06-20T01:55:49.268Z,78.46
2018-06-20T01:56:49.237Z,78.75
2018-06-20T01:57:49.259Z,78.66
2018-06-20T01:58:49.241Z,78.27
2018-06-20T01:59:49.280Z,78.46
2018-06-20T02:00:49.246Z,78.46
2018-06-20T02:01:49.270Z,78.46
2018-06-20T02:02:49.242Z,78.46
2018-06-20T02:03:49.231Z,78.56
2018-06-20T02:04:49.282Z,78.46
2018-06-20T02:05:49.287Z,78.27
2018-06-20T02:07:24.067Z,78.36
2018-06-20T02:07:49.307Z,78.56
2018-06-20T02:08:49.276Z,78.56
2018-06-20T02:09:49.257Z,78.36
2018-06-20T02:10:49.263Z,78.56
2018-06-20T02:11:49.294Z,78.56
2018-06-20T02:12:49.259Z,78.17
2018-06-20T02:13:49.256Z,78.46
2018-06-20T02:14:49.263Z,78.66
2018-06-20T02:15:49.250Z,78.56
2018-06-20T02:16:49.278Z,78.56
2018-06-20T02:17:49.282Z,78.46
2018-06-20T02:18:49.261Z,78.56
2018-06-20T02:19:49.309Z,78.56
2018-06-20T02:20:49.345Z,78.08
2018-06-20T02:21:49.276Z,78.36
2018-06-20T02:22:49.327Z,78.46
2018-06-20T02:23:49.294Z,78.46
2018-06-20T02:24:49.341Z,78.56
2018-06-20T02:25:49.339Z,78.46
2018-06-20T02:26:50.092Z,78.46
2018-06-20T02:27:49.285Z,78.46
2018-06-20T02:28:49.316Z,78.66
2018-06-20T02:29:49.304Z,78.66
2018-06-20T02:30:49.959Z,78.46
2018-06-20T02:31:50.014Z,78.56
2018-06-20T02:32:49.897Z,78.66
2018-06-20T02:33:49.319Z,78.56
2018-06-20T02:34:49.272Z,78.27
2018-06-20T02:35:49.273Z,78.27
2018-06-20T02:36:49.387Z,78.36
2018-06-20T02:37:49.284Z,78.56
2018-06-20T02:38:49.319Z,78.66
2018-06-20T02:39:49.300Z,78.46
2018-06-20T02:40:49.335Z,78.36
2018-06-20T02:41:49.301Z,78.66
2018-06-20T02:42:49.326Z,78.46
2018-06-20T02:43:49.324Z,78.27
2018-06-20T02:44:49.362Z,78.46
2018-06-20T02:45:49.336Z,78.66
2018-06-20T02:46:49.947Z,78.08
2018-06-20T02:47:49.362Z,78.36
2018-06-20T02:48:49.383Z,78.36
2018-06-20T02:49:49.598Z,78.27
2018-06-20T02:50:49.346Z,78.17
2018-06-20T02:51:49.356Z,78.27
2018-06-20T02:52:49.483Z,78.08
2018-06-20T02:53:49.365Z,78.46
2018-06-20T02:54:49.396Z,78.46
2018-06-20T02:55:49.345Z,78.75
2018-06-20T02:56:49.335Z,78.56
2018-06-20T02:57:49.352Z,78.56
2018-06-20T02:58:49.359Z,78.36
2018-06-20T02:59:49.337Z,78.17
2018-06-20T03:00:49.360Z,78.66
2018-06-20T03:01:49.354Z,78.17
2018-06-20T03:02:49.361Z,78.46
2018-06-20T03:03:49.352Z,78.08
2018-06-20T03:04:49.410Z,78.36
2018-06-20T03:05:49.368Z,78.66
2018-06-20T03:06:49.398Z,78.56
2018-06-20T03:07:49.356Z,78.36
2018-06-20T03:08:49.384Z,78.66
2018-06-20T03:09:49.380Z,78.56
2018-06-20T03:10:49.428Z,78.75
2018-06-20T03:11:49.409Z,78.66
2018-06-20T03:12:49.391Z,78.66
2018-06-20T03:13:49.417Z,78.36
2018-06-20T03:14:49.400Z,78.27
2018-06-20T03:15:49.362Z,78.27
2018-06-20T03:16:49.386Z,78.27
2018-06-20T03:17:49.417Z,78.56
2018-06-20T03:18:49.477Z,78.46
2018-06-20T03:19:49.404Z,78.46
2018-06-20T03:20:49.436Z,78.56
2018-06-20T03:21:49.396Z,78.75
2018-06-20T03:22:49.352Z,78.66
2018-06-20T03:23:49.378Z,78.46
2018-06-20T03:24:49.368Z,78.56
2018-06-20T03:25:49.398Z,78.56
2018-06-20T03:26:49.402Z,78.46
2018-06-20T03:27:49.431Z,78.66
2018-06-20T03:28:49.386Z,78.46
2018-06-20T03:29:49.403Z,78.46
2018-06-20T03:30:49.412Z,78.46
2018-06-20T03:31:49.412Z,78.66
2018-06-20T03:32:49.387Z,78.66
2018-06-20T03:33:49.524Z,78.56
2018-06-20T03:34:49.417Z,78.66
2018-06-20T03:35:49.430Z,78.56
2018-06-20T03:36:49.413Z,78.56
2018-06-20T03:37:49.397Z,78.46
2018-06-20T03:38:49.437Z,78.46
2018-06-20T03:39:49.416Z,78.46
2018-06-20T03:40:49.425Z,78.56
2018-06-20T03:41:49.397Z,78.27
2018-06-20T03:42:49.413Z,78.75
2018-06-20T03:43:49.411Z,78.36
2018-06-20T03:44:49.421Z,78.56
2018-06-20T03:45:49.449Z,78.56
2018-06-20T03:46:49.430Z,78.46
2018-06-20T03:47:49.443Z,78.46
2018-06-20T03:48:49.439Z,78.27
2018-06-20T03:49:49.421Z,78.56
2018-06-20T03:50:49.431Z,78.36
2018-06-20T03:51:49.424Z,78.46
2018-06-20T03:52:49.446Z,78.66
2018-06-20T03:53:49.421Z,78.56
2018-06-20T03:54:49.408Z,78.66
2018-06-20T03:55:49.447Z,78.56
2018-06-20T03:56:49.416Z,78.56
2018-06-20T03:57:49.457Z,78.17
2018-06-20T03:58:49.487Z,78.27
2018-06-20T03:59:49.438Z,78.56
2018-06-20T04:00:49.415Z,78.46
2018-06-20T04:01:49.449Z,78.46
2018-06-20T04:02:49.482Z,78.36
2018-06-20T04:03:49.443Z,78.66
2018-06-20T04:04:49.495Z,78.56
2018-06-20T04:05:49.475Z,78.36
2018-06-20T04:06:49.488Z,78.27
2018-06-20T04:07:49.479Z,78.27
2018-06-20T04:08:49.477Z,78.36
2018-06-20T04:09:49.477Z,78.56
2018-06-20T04:10:49.460Z,78.27
2018-06-20T04:11:49.494Z,78.36
2018-06-20T04:12:49.598Z,78.56
2018-06-20T04:13:49.510Z,78.56
2018-06-20T04:14:49.537Z,78.56
2018-06-20T04:15:49.501Z,78.36
2018-06-20T04:16:49.458Z,78.17
2018-06-20T04:17:49.482Z,78.56
2018-06-20T04:18:49.459Z,78.46
2018-06-20T04:19:49.477Z,78.46
2018-06-20T04:20:49.504Z,78.56
2018-06-20T04:21:49.509Z,78.46
2018-06-20T04:22:49.476Z,78.66
2018-06-20T04:23:49.464Z,78.56
2018-06-20T04:24:49.513Z,78.66
2018-06-20T04:25:49.540Z,78.66
2018-06-20T04:26:49.468Z,78.66
2018-06-20T04:27:49.489Z,78.66
2018-06-20T04:28:49.506Z,78.46
2018-06-20T04:29:49.567Z,78.46
2018-06-20T04:30:49.514Z,78.85
2018-06-20T04:31:49.524Z,78.85
2018-06-20T04:32:49.499Z,78.85
2018-06-20T04:33:49.530Z,79.04
2018-06-20T04:34:49.569Z,78.75
2018-06-20T04:35:49.543Z,78.75
2018-06-20T04:36:49.535Z,78.75
2018-06-20T04:37:49.515Z,78.75
2018-06-20T04:38:49.600Z,78.94
2018-06-20T04:39:49.546Z,78.94
2018-06-20T04:40:49.537Z,78.75
2018-06-20T04:41:49.536Z,78.66
2018-06-20T04:42:49.563Z,78.46
2018-06-20T04:43:49.572Z,78.75
2018-06-20T04:44:49.504Z,78.85
2018-06-20T04:45:49.555Z,78.66
2018-06-20T04:46:49.613Z,78.56
2018-06-20T04:47:49.556Z,78.85
2018-06-20T04:48:49.551Z,78.94
2018-06-20T04:49:49.545Z,78.56
2018-06-20T04:50:49.623Z,78.56
2018-06-20T04:51:49.576Z,79.24
2018-06-20T04:52:50.150Z,79.04
2018-06-20T04:53:49.640Z,79.14
2018-06-20T04:54:49.571Z,78.94
2018-06-20T04:55:49.568Z,78.75
2018-06-20T04:56:49.563Z,78.85
2018-06-20T04:57:49.533Z,79.04
2018-06-20T04:58:49.589Z,78.94
2018-06-20T04:59:49.578Z,79.24
2018-06-20T05:00:49.564Z,78.75
2018-06-20T05:01:49.598Z,78.66
2018-06-20T05:02:49.596Z,78.85
2018-06-20T05:03:49.571Z,79.04
2018-06-20T05:04:49.550Z,78.94
2018-06-20T05:05:49.589Z,78.94
2018-06-20T05:06:49.564Z,78.75
2018-06-20T05:07:49.572Z,78.56
2018-06-20T05:08:49.625Z,78.66
2018-06-20T05:09:49.568Z,78.46
2018-06-20T05:10:49.543Z,78.56
2018-06-20T05:11:49.613Z,78.56
2018-06-20T05:12:49.608Z,78.66
2018-06-20T05:13:49.694Z,78.36
2018-06-20T05:14:49.618Z,78.75
2018-06-20T05:15:49.584Z,78.36
2018-06-20T05:16:49.554Z,78.66
2018-06-20T05:17:49.582Z,78.27
2018-06-20T05:18:49.565Z,78.17
2018-06-20T05:19:49.609Z,78.66
2018-06-20T05:20:49.618Z,78.27
2018-06-20T05:21:49.612Z,78.27
2018-06-20T05:22:49.579Z,78.36
2018-06-20T05:23:49.630Z,78.46
2018-06-20T05:24:49.634Z,78.27
2018-06-20T05:25:49.613Z,78.66
2018-06-20T05:26:50.248Z,78.46
2018-06-20T05:27:49.604Z,78.46
2018-06-20T05:28:49.607Z,78.56
2018-06-20T05:29:49.612Z,78.56
2018-06-20T05:30:49.649Z,78.27
2018-06-20T05:31:49.603Z,78.46
2018-06-20T05:32:49.638Z,78.66
2018-06-20T05:33:49.693Z,78.08
2018-06-20T05:34:49.664Z,78.46
2018-06-20T05:35:49.667Z,78.56
2018-06-20T05:36:49.630Z,78.66
2018-06-20T05:37:49.672Z,78.36
2018-06-20T05:38:49.619Z,78.46
2018-06-20T05:39:49.652Z,78.56
2018-06-20T05:40:49.641Z,79.04
2018-06-20T05:41:49.748Z,78.94
2018-06-20T05:42:49.651Z,78.46
2018-06-20T05:43:49.650Z,78.36
2018-06-20T05:44:49.653Z,78.46
2018-06-20T05:45:49.683Z,78.36
2018-06-20T05:46:49.652Z,78.85
2018-06-20T05:47:49.675Z,78.75
2018-06-20T05:48:49.658Z,78.36
2018-06-20T05:49:49.653Z,78.66
2018-06-20T05:50:49.656Z,78.85
2018-06-20T05:51:49.712Z,78.66
2018-06-20T05:52:49.674Z,78.56
2018-06-20T05:53:49.805Z,78.36
2018-06-20T05:54:49.651Z,78.36
2018-06-20T05:55:49.688Z,78.66
2018-06-20T05:56:49.697Z,78.56
2018-06-20T05:57:49.692Z,78.56
2018-06-20T05:58:49.670Z,78.56
2018-06-20T05:59:49.684Z,78.66
2018-06-20T06:00:49.686Z,78.56
2018-06-20T06:01:49.684Z,78.36
2018-06-20T06:02:49.674Z,78.66
2018-06-20T06:03:49.732Z,78.56
2018-06-20T06:04:49.683Z,78.75
2018-06-20T06:05:49.669Z,78.56
2018-06-20T06:06:49.719Z,78.56
2018-06-20T06:07:49.696Z,78.46
2018-06-20T06:08:49.705Z,78.36
2018-06-20T06:09:49.699Z,78.66
2018-06-20T06:10:49.675Z,78.08
2018-06-20T06:11:49.663Z,78.36
2018-06-20T06:12:49.691Z,78.56
2018-06-20T06:13:49.699Z,78.56
2018-06-20T06:14:49.705Z,78.56
2018-06-20T06:15:49.732Z,78.56
2018-06-20T06:16:49.876Z,78.56
2018-06-20T06:17:49.705Z,78.46
2018-06-20T06:18:49.679Z,78.56
2018-06-20T06:19:49.689Z,78.46
2018-06-20T06:20:49.691Z,78.56
2018-06-20T06:21:49.693Z,78.08
2018-06-20T06:22:49.701Z,78.27
2018-06-20T06:23:49.708Z,78.17
2018-06-20T06:24:49.692Z,78.17
2018-06-20T06:25:49.697Z,78.56
2018-06-20T06:26:49.705Z,78.17
2018-06-20T06:27:49.740Z,77.88
2018-06-20T06:28:49.728Z,78.46
2018-06-20T06:29:49.726Z,78.27
2018-06-20T06:30:49.744Z,78.17
2018-06-20T06:31:49.713Z,77.88
2018-06-20T06:32:49.709Z,78.36
2018-06-20T06:33:49.728Z,78.17
2018-06-20T06:34:49.739Z,78.17
2018-06-20T06:35:49.725Z,78.36
2018-06-20T06:36:49.716Z,78.17
2018-06-20T06:37:49.760Z,78.17
2018-06-20T06:38:49.735Z,78.56
2018-06-20T06:39:49.735Z,78.36
2018-06-20T06:40:49.732Z,78.08
2018-06-20T06:41:49.774Z,78.36
2018-06-20T06:42:49.830Z,77.98
2018-06-20T06:43:49.868Z,78.27
2018-06-20T06:44:49.731Z,78.46
2018-06-20T06:45:49.726Z,78.66
2018-06-20T06:46:49.756Z,78.75
2018-06-20T06:47:49.739Z,78.66
2018-06-20T06:48:49.728Z,78.36
2018-06-20T06:49:49.867Z,78.52
2018-06-20T06:50:49.744Z,78.36
2018-06-20T06:51:49.770Z,78.61
2018-06-20T06:52:49.743Z,78.75
2018-06-20T06:53:49.732Z,78.42
2018-06-20T06:54:49.825Z,78.36
2018-06-20T06:55:49.739Z,78.56
2018-06-20T06:56:49.773Z,78.23
2018-06-20T06:57:49.756Z,78.66
2018-06-20T06:58:49.734Z,78.56
2018-06-20T06:59:49.796Z,78.56
2018-06-20T07:00:49.776Z,78.17
2018-06-20T07:01:49.765Z,78.46
2018-06-20T07:02:49.820Z,78.17
2018-06-20T07:03:49.769Z,78.56
2018-06-20T07:04:49.785Z,78.27
2018-06-20T07:05:49.830Z,78.46
2018-06-20T07:06:49.791Z,78.56
2018-06-20T07:07:49.874Z,78.66
2018-06-20T07:08:49.880Z,78.66
2018-06-20T07:09:49.792Z,78.36
2018-06-20T07:10:49.793Z,78.56
2018-06-20T07:11:49.825Z,78.36
2018-06-20T07:12:49.858Z,78.75
2018-06-20T07:13:49.839Z,78.46
2018-06-20T07:14:49.819Z,78.36
2018-06-20T07:15:49.826Z,78.46
2018-06-20T07:16:50.168Z,78.75
2018-06-20T07:17:49.839Z,78.46
2018-06-20T07:18:49.917Z,78.56
2018-06-20T07:19:49.830Z,78.56
2018-06-20T07:20:49.840Z,78.46
2018-06-20T07:21:49.921Z,78.08
2018-06-20T07:22:50.488Z,78.27
2018-06-20T07:23:49.844Z,78.17
2018-06-20T07:24:49.812Z,78.17
2018-06-20T07:25:49.878Z,78.08
2018-06-20T07:26:49.822Z,78.27
2018-06-20T07:27:49.895Z,78.08
2018-06-20T07:28:49.838Z,78.17
2018-06-20T07:29:49.928Z,78.17
2018-06-20T07:30:49.865Z,78.46
2018-06-20T07:31:49.833Z,78.27
2018-06-20T07:32:49.860Z,78.36
2018-06-20T07:33:49.858Z,78.36
2018-06-20T07:34:49.843Z,77.98
2018-06-20T07:35:49.892Z,77.88
2018-06-20T07:36:49.826Z,77.98
2018-06-20T07:37:51.036Z,78.08
2018-06-20T07:38:49.813Z,78.46
2018-06-20T07:39:49.832Z,78.17
2018-06-20T07:40:49.862Z,77.98
2018-06-20T07:41:49.859Z,77.98
2018-06-20T07:42:49.834Z,77.98
2018-06-20T07:43:49.855Z,78.08
2018-06-20T07:44:49.834Z,77.88
2018-06-20T07:45:49.833Z,78.08
2018-06-20T07:46:49.894Z,77.88
2018-06-20T07:47:49.876Z,78.08
2018-06-20T07:48:49.878Z,77.88
2018-06-20T07:49:49.831Z,77.88
2018-06-20T07:55:06.965Z,77.88
2018-06-20T07:55:18.380Z,78.08
2018-06-20T07:56:18.362Z,77.98
2018-06-20T07:57:18.372Z,78.08
2018-06-20T07:58:18.378Z,78.08
2018-06-20T07:59:18.363Z,77.98
2018-06-20T08:00:18.425Z,77.88
2018-06-20T08:01:18.386Z,78.17
2018-06-20T08:02:18.402Z,78.08
2018-06-20T08:03:18.361Z,78.08
2018-06-20T08:04:18.373Z,78.36
2018-06-20T08:05:18.374Z,78.17
2018-06-20T08:06:21.302Z,78.27
2018-06-20T08:07:18.394Z,77.98
2018-06-20T08:08:18.370Z,78.27
2018-06-20T08:09:18.399Z,78.36
2018-06-20T08:10:18.439Z,78.27
2018-06-20T08:11:18.383Z,78.27
2018-06-20T08:12:18.475Z,78.08
2018-06-20T08:13:18.402Z,78.08
2018-06-20T08:14:18.379Z,77.98
2018-06-20T08:15:18.391Z,77.88
2018-06-20T08:16:18.398Z,77.88
2018-06-20T08:17:18.437Z,77.78
2018-06-20T08:18:18.412Z,77.98
2018-06-20T08:19:18.385Z,77.88
2018-06-20T08:20:18.499Z,77.78
2018-06-20T08:21:18.400Z,77.59
2018-06-20T08:22:18.434Z,77.69
2018-06-20T08:23:18.418Z,77.59
2018-06-20T08:24:18.420Z,77.88
2018-06-20T08:25:18.402Z,77.69
2018-06-20T08:26:18.440Z,77.78
2018-06-20T08:27:18.467Z,77.78
2018-06-20T08:28:18.480Z,77.59
2018-06-20T08:29:18.464Z,77.78
2018-06-20T08:30:18.443Z,77.69
2018-06-20T08:31:18.474Z,77.78
2018-06-20T08:32:18.451Z,77.98
2018-06-20T08:33:18.452Z,77.88
2018-06-20T08:34:18.522Z,77.88
2018-06-20T08:35:18.451Z,77.78
2018-06-20T08:36:18.450Z,77.69
2018-06-20T08:37:21.405Z,77.98
2018-06-20T08:38:18.461Z,77.88
2018-06-20T08:39:18.439Z,77.69
2018-06-20T08:40:18.476Z,77.78
2018-06-20T08:41:18.462Z,77.59
2018-06-20T08:42:18.541Z,77.69
2018-06-20T08:43:18.521Z,78.08
2018-06-20T08:44:18.502Z,77.59
2018-06-20T08:45:18.458Z,77.78
2018-06-20T08:46:18.491Z,77.4
2018-06-20T08:47:18.533Z,77.88
2018-06-20T08:48:18.471Z,77.59
2018-06-20T08:49:18.459Z,77.5
2018-06-20T08:50:18.473Z,77.69
2018-06-20T08:51:19.092Z,77.5
2018-06-20T08:52:18.497Z,77.5
2018-06-20T08:53:18.460Z,77.69
2018-06-20T08:54:18.516Z,77.5
2018-06-20T08:55:18.493Z,77.59
2018-06-20T08:56:18.508Z,77.59
2018-06-20T08:57:18.506Z,77.59
2018-06-20T08:58:18.493Z,77.5
2018-06-20T08:59:18.365Z,77.4
2018-06-20T09:00:18.488Z,77.3
2018-06-20T09:01:18.517Z,77.4
2018-06-20T09:02:18.546Z,77.2
2018-06-20T09:03:18.480Z,77.4
2018-06-20T09:04:18.508Z,77.3
2018-06-20T09:05:18.511Z,77.59
2018-06-20T09:06:18.515Z,77.3
2018-06-20T09:07:18.512Z,77.5
2018-06-20T09:08:18.477Z,77.5
2018-06-20T09:09:18.485Z,77.5
2018-06-20T09:10:18.488Z,77.5
2018-06-20T09:11:18.548Z,77.5
2018-06-20T09:12:18.506Z,77.5
2018-06-20T09:13:18.548Z,77.5
2018-06-20T09:14:18.610Z,77.4
2018-06-20T09:15:18.506Z,77.78
2018-06-20T09:16:18.531Z,77.3
2018-06-20T09:17:18.534Z,76.82
2018-06-20T09:18:18.545Z,77.4
2018-06-20T09:19:18.571Z,77.01
2018-06-20T09:20:18.535Z,77.59
2018-06-20T09:21:18.517Z,77.01
2018-06-20T09:22:18.649Z,77.4
2018-06-20T09:23:18.553Z,76.82
2018-06-20T09:24:18.543Z,76.72
2018-06-20T09:25:18.567Z,77.01
2018-06-20T09:26:18.553Z,77.11
2018-06-20T09:27:18.584Z,77.11
2018-06-20T09:28:18.565Z,77.01
2018-06-20T09:29:18.687Z,77.01
2018-06-20T09:30:18.587Z,77.11
2018-06-20T09:31:18.591Z,76.82
2018-06-20T09:32:18.564Z,77.01
2018-06-20T09:33:18.576Z,76.91
2018-06-20T09:34:18.627Z,77.01
2018-06-20T09:35:18.581Z,76.91
2018-06-20T09:36:18.697Z,77.01
2018-06-20T09:37:18.614Z,76.72
2018-06-20T09:38:18.675Z,77.01
2018-06-20T09:39:18.600Z,77.3
2018-06-20T09:40:18.590Z,77.01
2018-06-20T09:41:18.616Z,77.01
2018-06-20T09:42:18.609Z,76.82
2018-06-20T09:43:18.631Z,77.2
2018-06-20T09:44:18.610Z,77.01
2018-06-20T09:45:18.616Z,77.01
2018-06-20T09:46:18.594Z,77.11
2018-06-20T09:47:18.632Z,77.2
2018-06-20T09:48:18.589Z,76.43
2018-06-20T09:49:18.629Z,77.11
2018-06-20T09:50:18.620Z,76.91
2018-06-20T09:51:18.588Z,76.53
2018-06-20T09:52:18.679Z,77.01
2018-06-20T09:53:18.589Z,77.01
2018-06-20T09:54:18.667Z,76.82
2018-06-20T09:55:18.618Z,76.72
2018-06-20T09:56:18.617Z,76.82
2018-06-20T09:57:18.619Z,76.53
2018-06-20T09:58:18.630Z,77.01
2018-06-20T09:59:18.615Z,76.62
2018-06-20T10:00:18.609Z,76.72
2018-06-20T10:01:18.676Z,76.53
2018-06-20T10:02:18.598Z,76.14
2018-06-20T10:03:18.618Z,76.24
2018-06-20T10:04:18.618Z,76.72
2018-06-20T10:05:18.601Z,76.72
2018-06-20T10:06:18.745Z,76.82
2018-06-20T10:07:18.619Z,76.53
2018-06-20T10:08:18.695Z,76.82
2018-06-20T10:09:18.620Z,76.62
2018-06-20T10:10:18.625Z,76.72
2018-06-20T10:11:18.730Z,76.62
2018-06-20T10:12:18.640Z,76.91
2018-06-20T10:13:18.880Z,76.53
2018-06-20T10:14:18.672Z,76.53
2018-06-20T10:15:18.658Z,76.72
2018-06-20T10:16:18.640Z,76.43
2018-06-20T10:17:18.655Z,76.53
2018-06-20T10:18:18.679Z,76.04
2018-06-20T10:19:38.687Z,76.43
2018-06-20T10:20:18.704Z,76.53
2018-06-20T10:21:18.784Z,76.53
2018-06-20T10:22:18.674Z,76.72
2018-06-20T10:23:18.729Z,76.43
2018-06-20T10:24:18.690Z,76.72
2018-06-20T10:25:18.697Z,76.14
2018-06-20T10:26:18.652Z,77.2
2018-06-20T10:27:18.638Z,76.62
2018-06-20T10:28:18.688Z,76.72
2018-06-20T10:29:18.669Z,76.53
2018-06-20T10:30:18.685Z,76.43
2018-06-20T10:31:19.516Z,76.43
2018-06-20T10:32:18.668Z,76.62
2018-06-20T10:33:18.693Z,76.72
2018-06-20T10:34:18.792Z,76.62
2018-06-20T10:35:18.658Z,76.53
2018-06-20T10:36:19.423Z,76.43
2018-06-20T10:37:18.670Z,76.62
2018-06-20T10:38:18.677Z,76.04
2018-06-20T10:39:18.684Z,76.33
2018-06-20T10:40:18.698Z,76.43
2018-06-20T10:41:19.548Z,76.53
2018-06-20T10:42:18.687Z,76.53
2018-06-20T10:43:18.654Z,76.14
2018-06-20T10:44:18.700Z,76.33
2018-06-20T10:45:18.725Z,76.24
2018-06-20T10:46:19.526Z,76.33
2018-06-20T10:47:18.658Z,76.24
2018-06-20T10:48:18.736Z,76.24
2018-06-20T10:49:18.775Z,76.43
2018-06-20T10:50:18.707Z,76.14
2018-06-20T10:51:18.713Z,76.24
2018-06-20T10:52:18.713Z,76.04
2018-06-20T10:53:18.737Z,76.33
2018-06-20T10:54:18.882Z,76.33
2018-06-20T10:55:18.716Z,76.33
2018-06-20T10:56:18.724Z,76.24
2018-06-20T10:57:18.705Z,76.04
2018-06-20T10:58:18.735Z,76.53
2018-06-20T10:59:18.692Z,75.85
2018-06-20T11:00:18.693Z,75.75
2018-06-20T11:01:18.705Z,75.85
2018-06-20T11:02:18.720Z,75.85
2018-06-20T11:03:18.711Z,76.24
2018-06-20T11:04:18.725Z,76.04
2018-06-20T11:05:18.727Z,75.95
2018-06-20T11:06:18.783Z,76.04
2018-06-20T11:07:18.718Z,75.95
2018-06-20T11:08:18.693Z,76.04
2018-06-20T11:09:18.757Z,76.33
2018-06-20T11:10:18.744Z,76.33
2018-06-20T11:11:19.031Z,75.56
2018-06-20T11:12:18.742Z,76.33
2018-06-20T11:13:18.748Z,75.85
2018-06-20T11:14:18.711Z,76.04
2018-06-20T11:15:18.831Z,75.95
2018-06-20T11:16:18.743Z,75.75
2018-06-20T11:17:18.785Z,75.65
2018-06-20T11:18:18.733Z,75.95
2018-06-20T11:19:18.766Z,75.95
2018-06-20T11:20:18.746Z,75.85
2018-06-20T11:21:18.731Z,76.04
2018-06-20T11:22:18.759Z,75.65
2018-06-20T11:23:18.903Z,75.46
2018-06-20T11:24:18.774Z,75.95
2018-06-20T11:25:18.776Z,75.95
2018-06-20T11:26:18.764Z,75.46
2018-06-20T11:27:18.742Z,75.95
2018-06-20T11:28:18.746Z,75.75
2018-06-20T11:29:18.837Z,75.95
2018-06-20T11:30:18.772Z,75.75
2018-06-20T11:31:18.769Z,75.65
2018-06-20T11:32:18.777Z,75.75
2018-06-20T11:33:18.769Z,76.04
2018-06-20T11:34:18.812Z,75.95
2018-06-20T11:35:18.819Z,75.95
2018-06-20T11:36:19.479Z,75.85
2018-06-20T11:37:18.753Z,75.85
2018-06-20T11:38:18.790Z,75.95
2018-06-20T11:39:18.815Z,75.75
2018-06-20T11:40:18.775Z,76.04
2018-06-20T11:41:18.828Z,75.85
2018-06-20T11:42:18.824Z,75.95
2018-06-20T11:43:18.877Z,75.85
2018-06-20T11:44:18.786Z,75.56
2018-06-20T11:45:18.805Z,75.85
2018-06-20T11:46:18.791Z,75.75
2018-06-20T11:47:18.833Z,75.85
2018-06-20T11:48:18.854Z,76.04
2018-06-20T11:49:18.786Z,75.85
2018-06-20T11:50:18.815Z,75.75
2018-06-20T11:51:18.823Z,75.75
2018-06-20T11:52:18.854Z,75.85
2018-06-20T11:53:19.714Z,75.75
2018-06-20T11:54:18.816Z,75.85
2018-06-20T11:55:18.846Z,75.56
2018-06-20T11:56:18.802Z,75.85
2018-06-20T11:57:18.809Z,75.75
2018-06-20T11:58:34.913Z,75.75
2018-06-20T11:59:34.928Z,75.75
2018-06-20T12:00:51.073Z,75.75
2018-06-20T12:01:51.157Z,76.04
2018-06-20T12:02:50.976Z,75.85
2018-06-20T12:03:51.062Z,75.75
2018-06-20T12:04:51.012Z,75.85
2018-06-20T12:05:51.015Z,75.65
2018-06-20T12:06:50.995Z,75.75
2018-06-20T12:07:51.029Z,75.75
2018-06-20T12:08:51.218Z,76.04
2018-06-20T12:09:51.679Z,75.75
2018-06-20T12:10:51.098Z,75.75
2018-06-20T12:11:51.013Z,75.75
2018-06-20T12:12:51.417Z,75.75
2018-06-20T12:13:51.052Z,75.95
2018-06-20T12:14:51.054Z,76.04
2018-06-20T12:15:51.040Z,75.85
2018-06-20T12:16:51.711Z,75.75
2018-06-20T12:17:51.038Z,75.85
2018-06-20T12:18:51.126Z,75.65
2018-06-20T12:19:51.164Z,75.85
2018-06-20T12:20:51.634Z,75.75
2018-06-20T12:21:51.110Z,75.75
2018-06-20T12:22:51.044Z,75.95
2018-06-20T12:23:51.096Z,75.75
2018-06-20T12:24:51.042Z,75.75
2018-06-20T12:25:51.045Z,75.75
2018-06-20T12:26:51.077Z,75.65
2018-06-20T12:27:51.066Z,75.75
2018-06-20T12:28:51.069Z,76.14
2018-06-20T12:29:51.139Z,75.75
2018-06-20T12:30:51.073Z,75.75
2018-06-20T12:31:51.082Z,75.95
2018-06-20T12:32:51.174Z,75.75
2018-06-20T12:33:51.082Z,75.65
2018-06-20T12:34:51.056Z,75.75
2018-06-20T12:35:51.096Z,75.75
2018-06-20T12:36:51.088Z,75.85
2018-06-20T12:37:51.096Z,75.75
2018-06-20T12:38:51.124Z,75.85
2018-06-20T12:39:51.107Z,75.85
2018-06-20T12:40:51.141Z,75.85
2018-06-20T12:41:51.144Z,75.75
2018-06-20T12:42:51.153Z,75.85
2018-06-20T12:43:52.137Z,75.56
2018-06-20T12:44:51.066Z,75.65
2018-06-20T12:45:51.133Z,75.85
2018-06-20T12:46:51.286Z,76.04
2018-06-20T12:47:51.081Z,75.75
2018-06-20T12:48:51.163Z,76.04
2018-06-20T12:49:51.072Z,75.56
2018-06-20T12:50:51.112Z,75.75
2018-06-20T12:51:51.643Z,75.75
2018-06-20T12:52:51.194Z,75.85
2018-06-20T12:53:51.152Z,75.95
2018-06-20T12:54:51.139Z,75.75
2018-06-20T12:55:51.108Z,76.04
2018-06-20T12:56:51.118Z,75.75
2018-06-20T12:57:51.100Z,75.85